Kimberly Jane — WDF9115 — position and weather

sailwx.info

Track history (hours):
 
Tides and Currents Weather Stations Pressure Air Temp Water Temp Dewpoint Dewpoint Depression Visibility Wind Speed Wind Dir Waves Ship Positions

Kimberly Jane

Owner: Kirby Inland Marine LP, Houston, TX. More information available from US FCC via Universal Licensing System and Coast Guard Vessel Documentation Center.

Last reported at 2018-May-19 09:53 UTC. Time now 2018-May-20 17:45 UTC.
Position N 32°40' W 091°07'.

Length 209 m; draft 2.9 m.

Type: . MMSI: 367501920.

Date/timePositionNaut miles runAvg speedWind from/ knotsBaromVisibWave heightAir tempDewpointWater temp
2018-May-19 09:53N 32°40' W 091°07'3 4.2
2018-May-19 09:14N 32°38' W 091°09'1 4.8
2018-May-19 09:00N 32°37' W 091°09'2 4.7
2018-May-19 08:30N 32°35' W 091°07'2 4.6
2018-May-19 08:00N 32°33' W 091°06'3 4.5
2018-May-19 07:20N 32°30' W 091°07'2 4.7
2018-May-19 07:00N 32°29' W 091°07'2 4.3
2018-May-19 06:30N 32°27' W 091°05'2 4.7
2018-May-19 06:00N 32°26' W 091°03'2 4.7
2018-May-19 05:30N 32°25' W 090°60'2 4.0
2018-May-19 05:00N 32°23' W 090°60'2 3.3
2018-May-19 04:30N 32°21' W 090°60'2 4.5
2018-May-19 04:00N 32°21' W 090°57'2 4.8
2018-May-19 03:30N 32°21' W 090°55'2 3.9
2018-May-19 03:00N 32°19' W 090°54'1 2.7
2018-May-19 02:30N 32°18' W 090°56'1 1.2
2018-May-19 02:00N 32°17' W 090°56'2 4.4
2018-May-19 01:30N 32°16' W 090°58'2 4.8
2018-May-19 01:00N 32°14' W 090°59'2 4.9
2018-May-19 00:30N 32°11' W 090°60'2 4.4
2018-May-19 00:00N 32°09' W 091°00'2 4.3
2018-May-18 23:30N 32°07' W 091°02'4 5.2
2018-May-18 22:48N 32°08' W 091°06'1 4.1
2018-May-18 22:30N 32°07' W 091°06'4 5.2
2018-May-18 21:41N 32°03' W 091°04'  
2018-May-16 15:29N 31°60' W 091°05'6 7.6
2018-May-16 14:39N 32°06' W 091°06'1 8.4
2018-May-16 14:30N 32°07' W 091°07'4 8.3
2018-May-16 14:00N 32°07' W 091°02'4 8.6
2018-May-16 13:30N 32°11' W 090°60'5 9.1
2018-May-16 13:00N 32°15' W 090°58'5 9.5
2018-May-16 12:30N 32°19' W 090°54'3 6.2
2018-May-16 12:00N 32°21' W 090°57'0 0.1
2018-May-16 11:30N 32°21' W 090°57'0 0.0
2018-May-16 11:00N 32°21' W 090°57'0 0.0
2018-May-16 10:28N 32°21' W 090°57'0 0.0
2018-May-16 09:54N 32°21' W 090°57'0 0.0
2018-May-16 09:28N 32°21' W 090°57'0 0.0
2018-May-16 09:00N 32°21' W 090°57'0 0.2
2018-May-16 08:30N 32°21' W 090°57'2 3.1
2018-May-16 08:00N 32°21' W 090°59'3 6.9
2018-May-16 07:30N 32°24' W 090°59'4 8.7
2018-May-16 07:00N 32°26' W 091°04'4 8.4
2018-May-16 06:30N 32°30' W 091°07'4 8.6
2018-May-16 06:00N 32°34' W 091°06'4 8.7
2018-May-16 05:30N 32°38' W 091°09'7 8.3
2018-May-16 04:38N 32°43' W 091°03'  
2018-May-10 10:25N 32°47' W 091°09'2 4.2
2018-May-10 10:00N 32°45' W 091°09'5 2.0
2018-May-10 07:21N 32°40' W 091°07'4 4.1
2018-May-10 06:30N 32°37' W 091°09'2 3.7
2018-May-10 06:00N 32°35' W 091°08'2 3.4
2018-May-10 05:30N 32°34' W 091°06'2 3.6
2018-May-10 05:00N 32°33' W 091°06'2 4.4
2018-May-10 04:30N 32°30' W 091°07'2 4.6
2018-May-10 04:00N 32°28' W 091°06'2 4.8
2018-May-10 03:30N 32°27' W 091°04'2 4.6
2018-May-10 03:00N 32°26' W 091°01'2 4.3
2018-May-10 02:30N 32°24' W 090°60'2 4.6
2018-May-10 02:00N 32°22' W 091°00'2 3.9
2018-May-10 01:30N 32°21' W 090°58'2 4.7
2018-May-10 01:00N 32°21' W 090°56'2 3.7
2018-May-10 00:30N 32°19' W 090°54'2 4.3
2018-May-10 00:00N 32°18' W 090°56'0 0.1
2018-May-09 23:30N 32°18' W 090°56'0 0.0
2018-May-09 23:00N 32°18' W 090°56'0 0.0
2018-May-09 22:30N 32°18' W 090°56'0 0.0
2018-May-09 22:00N 32°18' W 090°56'0 0.0
2018-May-09 21:30N 32°18' W 090°56'0 0.3
2018-May-09 21:00N 32°18' W 090°56'2 3.6
2018-May-09 20:30N 32°16' W 090°58'2 4.6
2018-May-09 20:00N 32°14' W 090°59'3 5.2
2018-May-09 19:30N 32°12' W 090°59'2 4.0
2018-May-09 19:00N 32°10' W 090°60'2 4.6
2018-May-09 18:30N 32°08' W 091°01'2 4.2
2018-May-09 18:00N 32°08' W 091°03'2 4.5
2018-May-09 17:30N 32°08' W 091°06'5 2.9
2018-May-09 15:40N 32°03' W 091°04'18 4.1
2018-May-09 11:17N 31°51' W 091°20'2 4.5
2018-May-09 10:53N 31°50' W 091°21'3 5.0
2018-May-09 10:17N 31°47' W 091°21'  
Track history (hours):
 
Tides and Currents Weather Stations Pressure Air Temp Water Temp Dewpoint Dewpoint Depression Visibility Wind Speed Wind Dir Waves Ship Positions

Kimberly Jane

Owner: Kirby Inland Marine LP, Houston, TX. More information available from US FCC via Universal Licensing System and Coast Guard Vessel Documentation Center.

Last reported at 2018-May-19 09:53 UTC. Time now 2018-May-20 17:45 UTC.
Position N 32°40' W 091°07'.

Length 209 m; draft 2.9 m.

Type: . MMSI: 367501920.

Date/timePositionNaut miles runAvg speedWind from/ knotsBaromVisibWave heightAir tempDewpointWater temp
2018-May-19 09:53N 32°40' W 091°07'3 4.2
2018-May-19 09:14N 32°38' W 091°09'1 4.8
2018-May-19 09:00N 32°37' W 091°09'2 4.7
2018-May-19 08:30N 32°35' W 091°07'2 4.6
2018-May-19 08:00N 32°33' W 091°06'3 4.5
2018-May-19 07:20N 32°30' W 091°07'2 4.7
2018-May-19 07:00N 32°29' W 091°07'2 4.3
2018-May-19 06:30N 32°27' W 091°05'2 4.7
2018-May-19 06:00N 32°26' W 091°03'2 4.7
2018-May-19 05:30N 32°25' W 090°60'2 4.0
2018-May-19 05:00N 32°23' W 090°60'2 3.3
2018-May-19 04:30N 32°21' W 090°60'2 4.5
2018-May-19 04:00N 32°21' W 090°57'2 4.8
2018-May-19 03:30N 32°21' W 090°55'2 3.9
2018-May-19 03:00N 32°19' W 090°54'1 2.7
2018-May-19 02:30N 32°18' W 090°56'1 1.2
2018-May-19 02:00N 32°17' W 090°56'2 4.4
2018-May-19 01:30N 32°16' W 090°58'2 4.8
2018-May-19 01:00N 32°14' W 090°59'2 4.9
2018-May-19 00:30N 32°11' W 090°60'2 4.4
2018-May-19 00:00N 32°09' W 091°00'2 4.3
2018-May-18 23:30N 32°07' W 091°02'4 5.2
2018-May-18 22:48N 32°08' W 091°06'1 4.1
2018-May-18 22:30N 32°07' W 091°06'4 5.2
2018-May-18 21:41N 32°03' W 091°04'  
2018-May-16 15:29N 31°60' W 091°05'6 7.6
2018-May-16 14:39N 32°06' W 091°06'1 8.4
2018-May-16 14:30N 32°07' W 091°07'4 8.3
2018-May-16 14:00N 32°07' W 091°02'4 8.6
2018-May-16 13:30N 32°11' W 090°60'5 9.1
2018-May-16 13:00N 32°15' W 090°58'5 9.5
2018-May-16 12:30N 32°19' W 090°54'3 6.2
2018-May-16 12:00N 32°21' W 090°57'0 0.1
2018-May-16 11:30N 32°21' W 090°57'0 0.0
2018-May-16 11:00N 32°21' W 090°57'0 0.0
2018-May-16 10:28N 32°21' W 090°57'0 0.0
2018-May-16 09:54N 32°21' W 090°57'0 0.0
2018-May-16 09:28N 32°21' W 090°57'0 0.0
2018-May-16 09:00N 32°21' W 090°57'0 0.2
2018-May-16 08:30N 32°21' W 090°57'2 3.1
2018-May-16 08:00N 32°21' W 090°59'3 6.9
2018-May-16 07:30N 32°24' W 090°59'4 8.7
2018-May-16 07:00N 32°26' W 091°04'4 8.4
2018-May-16 06:30N 32°30' W 091°07'4 8.6
2018-May-16 06:00N 32°34' W 091°06'4 8.7
2018-May-16 05:30N 32°38' W 091°09'7 8.3
2018-May-16 04:38N 32°43' W 091°03'  
2018-May-10 10:25N 32°47' W 091°09'2 4.2
2018-May-10 10:00N 32°45' W 091°09'5 2.0
2018-May-10 07:21N 32°40' W 091°07'4 4.1
2018-May-10 06:30N 32°37' W 091°09'2 3.7
2018-May-10 06:00N 32°35' W 091°08'2 3.4
2018-May-10 05:30N 32°34' W 091°06'2 3.6
2018-May-10 05:00N 32°33' W 091°06'2 4.4
2018-May-10 04:30N 32°30' W 091°07'2 4.6
2018-May-10 04:00N 32°28' W 091°06'2 4.8
2018-May-10 03:30N 32°27' W 091°04'2 4.6
2018-May-10 03:00N 32°26' W 091°01'2 4.3
2018-May-10 02:30N 32°24' W 090°60'2 4.6
2018-May-10 02:00N 32°22' W 091°00'2 3.9
2018-May-10 01:30N 32°21' W 090°58'2 4.7
2018-May-10 01:00N 32°21' W 090°56'2 3.7
2018-May-10 00:30N 32°19' W 090°54'2 4.3
2018-May-10 00:00N 32°18' W 090°56'0 0.1
2018-May-09 23:30N 32°18' W 090°56'0 0.0
2018-May-09 23:00N 32°18' W 090°56'0 0.0
2018-May-09 22:30N 32°18' W 090°56'0 0.0
2018-May-09 22:00N 32°18' W 090°56'0 0.0
2018-May-09 21:30N 32°18' W 090°56'0 0.3
2018-May-09 21:00N 32°18' W 090°56'2 3.6
2018-May-09 20:30N 32°16' W 090°58'2 4.6
2018-May-09 20:00N 32°14' W 090°59'3 5.2
2018-May-09 19:30N 32°12' W 090°59'2 4.0
2018-May-09 19:00N 32°10' W 090°60'2 4.6
2018-May-09 18:30N 32°08' W 091°01'2 4.2
2018-May-09 18:00N 32°08' W 091°03'2 4.5
2018-May-09 17:30N 32°08' W 091°06'5 2.9
2018-May-09 15:40N 32°03' W 091°04'18 4.1
2018-May-09 11:17N 31°51' W 091°20'2 4.5
2018-May-09 10:53N 31°50' W 091°21'3 5.0
2018-May-09 10:17N 31°47' W 091°21'  

Dump ship's entire track history